Time;durP1;ratioP1;P1;durP2;ratioP2;P2;SDS_P1;SDS_P2;PMS_P1;PMS_P2;Temp;Humidity;BMP_temperature;BMP_pressure;BME280_temperature;BME280_humidity;BME280_pressure;Samples;Min_cycle;Max_cycle;Signal;HPM_P1;HPM_P2
2024/02/27 00:00:03;;;;;;;11.48;9.27;;;2.80;99.90;;;;;;5040159;28;20045;-75
2024/02/27 00:02:29;;;;;;;10.30;8.75;;;2.90;99.90;;;;;;5028053;28;20160;-74
2024/02/27 00:04:55;;;;;;;13.18;9.13;;;2.90;99.90;;;;;;5034677;28;20127;-75
2024/02/27 00:07:23;;;;;;;12.38;8.23;;;2.90;99.90;;;;;;5043293;28;20391;-75
2024/02/27 00:09:49;;;;;;;11.73;9.77;;;2.80;99.90;;;;;;5045729;28;20137;-76
2024/02/27 00:12:15;;;;;;;11.27;9.38;;;2.80;99.90;;;;;;5025201;28;20029;-75
2024/02/27 00:14:41;;;;;;;12.20;9.55;;;2.80;99.90;;;;;;5031253;28;20119;-75
2024/02/27 00:17:06;;;;;;;10.80;8.60;;;2.80;99.90;;;;;;5055886;28;20130;-75
2024/02/27 00:19:36;;;;;;;13.05;8.57;;;2.80;99.90;;;;;;5045967;28;20075;-77
2024/02/27 00:22:04;;;;;;;12.93;9.13;;;2.70;99.90;;;;;;5028795;28;20052;-76
2024/02/27 00:24:30;;;;;;;11.80;9.05;;;2.80;99.90;;;;;;5047516;28;20439;-75
2024/02/27 00:26:56;;;;;;;12.43;8.77;;;2.70;99.90;;;;;;5036721;28;20041;-75
2024/02/27 00:29:22;;;;;;;10.52;9.13;;;2.70;99.90;;;;;;5032511;28;20123;-76
2024/02/27 00:31:48;;;;;;;12.45;9.55;;;2.70;99.90;;;;;;5036084;28;20154;-76
2024/02/27 00:34:15;;;;;;;12.82;9.50;;;2.70;99.90;;;;;;5049997;28;20492;-76
2024/02/27 00:36:41;;;;;;;11.32;8.95;;;2.70;99.90;;;;;;5036438;28;20401;-75
2024/02/27 00:39:07;;;;;;;15.10;9.43;;;2.80;99.90;;;;;;5037423;28;20037;-75
2024/02/27 00:41:40;;;;;;;11.95;9.60;;;2.70;99.90;;;;;;5036176;28;20044;-76
2024/02/27 00:44:07;;;;;;;11.63;8.77;;;2.70;99.90;;;;;;5047612;28;20048;-75
2024/02/27 00:46:34;;;;;;;12.48;8.93;;;2.60;99.90;;;;;;5041556;28;20037;-75
2024/02/27 00:49:00;;;;;;;15.20;9.73;;;2.60;99.90;;;;;;5029559;28;20110;-76
2024/02/27 00:51:25;;;;;;;12.80;8.85;;;2.60;99.90;;;;;;5048423;28;20039;-75
2024/02/27 00:53:51;;;;;;;12.55;9.13;;;2.50;99.90;;;;;;5047792;28;20157;-76
2024/02/27 00:56:17;;;;;;;13.27;8.75;;;2.60;99.90;;;;;;5047188;28;20029;-76
2024/02/27 00:58:43;;;;;;;12.10;9.82;;;2.60;99.90;;;;;;5050627;28;20089;-75
2024/02/27 01:01:09;;;;;;;14.80;9.05;;;2.50;99.90;;;;;;5047873;28;20159;-78
2024/02/27 01:03:35;;;;;;;11.77;9.65;;;2.50;99.90;;;;;;5030024;28;20048;-75
2024/02/27 01:06:01;;;;;;;16.70;10.13;;;2.50;99.90;;;;;;5051001;28;21228;-75
2024/02/27 01:08:26;;;;;;;18.65;9.25;;;2.50;99.90;;;;;;5025295;28;20087;-76
2024/02/27 01:10:52;;;;;;;11.27;9.52;;;2.50;99.90;;;;;;5028081;28;20529;-76
2024/02/27 01:13:18;;;;;;;11.23;8.82;;;2.50;99.90;;;;;;5028701;28;20052;-75
2024/02/27 01:15:44;;;;;;;13.48;10.10;;;2.50;99.90;;;;;;5025848;28;20139;-75
2024/02/27 01:18:10;;;;;;;10.40;8.95;;;2.40;99.90;;;;;;5053217;28;20040;-75
2024/02/27 01:20:35;;;;;;;12.48;8.93;;;2.40;99.90;;;;;;5032468;28;20128;-75
2024/02/27 01:23:05;;;;;;;12.43;9.73;;;2.40;99.90;;;;;;5048957;28;20044;-76
2024/02/27 01:25:33;;;;;;;12.73;8.95;;;2.30;99.90;;;;;;5042473;28;20087;-77
2024/02/27 01:27:59;;;;;;;14.95;9.93;;;2.30;99.90;;;;;;5038465;28;20054;-77
2024/02/27 01:30:25;;;;;;;15.45;9.90;;;2.30;99.90;;;;;;5026481;28;20032;-76
2024/02/27 01:32:51;;;;;;;13.65;10.00;;;2.30;99.90;;;;;;5034935;28;20052;-76
2024/02/27 01:35:18;;;;;;;12.55;10.02;;;2.30;99.90;;;;;;5032232;28;20032;-76
2024/02/27 01:37:44;;;;;;;16.25;10.32;;;2.40;99.90;;;;;;5033769;28;20493;-77
2024/02/27 01:40:14;;;;;;;14.32;10.38;;;2.30;99.90;;;;;;5022725;28;20067;-76
2024/02/27 01:42:43;;;;;;;13.40;10.43;;;2.30;99.90;;;;;;5042027;28;20033;-77
2024/02/27 01:45:15;;;;;;;12.93;9.80;;;2.30;99.90;;;;;;5028127;28;20080;-77
2024/02/27 01:47:41;;;;;;;13.35;10.23;;;2.30;99.90;;;;;;5042332;28;20113;-77
2024/02/27 01:50:08;;;;;;;16.42;10.40;;;2.20;99.90;;;;;;5038955;28;20251;-77
2024/02/27 01:52:34;;;;;;;14.60;10.35;;;2.20;99.90;;;;;;5034287;28;20749;-75
2024/02/27 01:55:00;;;;;;;14.85;11.20;;;2.20;99.90;;;;;;5031968;28;20029;-75
2024/02/27 01:57:25;;;;;;;16.70;11.68;;;2.20;99.90;;;;;;5047803;28;20401;-74
2024/02/27 01:59:51;;;;;;;13.35;9.77;;;2.10;99.90;;;;;;5048303;28;20098;-74
2024/02/27 02:02:17;;;;;;;15.82;10.63;;;2.10;99.90;;;;;;5026056;28;20041;-74
2024/02/27 02:04:43;;;;;;;12.88;9.82;;;2.10;99.90;;;;;;5045120;28;20055;-74
2024/02/27 02:07:09;;;;;;;14.40;10.77;;;2.10;99.90;;;;;;5034727;28;20493;-74
2024/02/27 02:09:35;;;;;;;15.25;10.80;;;2.20;99.90;;;;;;5046799;28;20098;-74
2024/02/27 02:12:01;;;;;;;12.57;10.45;;;2.10;99.90;;;;;;5039424;28;20041;-74
2024/02/27 02:14:27;;;;;;;14.27;10.77;;;2.10;99.90;;;;;;5026141;28;20051;-75
2024/02/27 02:16:53;;;;;;;15.48;11.40;;;2.00;99.90;;;;;;5047095;28;20052;-74
2024/02/27 02:19:19;;;;;;;14.45;10.27;;;2.10;99.90;;;;;;5047304;28;20166;-74
2024/02/27 02:21:49;;;;;;;16.77;11.50;;;2.10;99.90;;;;;;5024274;28;20084;-73
2024/02/27 02:24:17;;;;;;;16.42;10.48;;;2.00;99.90;;;;;;5027759;28;20040;-74
2024/02/27 02:26:43;;;;;;;19.77;12.95;;;1.90;99.90;;;;;;5043728;28;20070;-74
2024/02/27 02:29:09;;;;;;;15.98;11.85;;;1.90;99.90;;;;;;5050710;28;20499;-73
2024/02/27 02:31:35;;;;;;;16.77;12.27;;;2.00;99.90;;;;;;5029127;28;20044;-74
2024/02/27 02:34:00;;;;;;;18.83;11.40;;;2.00;99.90;;;;;;5031066;28;20048;-74
2024/02/27 02:36:26;;;;;;;16.50;11.27;;;1.80;99.90;;;;;;5029543;28;20112;-74
2024/02/27 02:38:52;;;;;;;18.67;12.63;;;1.90;99.90;;;;;;5047521;28;20130;-74
2024/02/27 02:41:18;;;;;;;20.25;13.27;;;1.90;99.90;;;;;;5031121;28;20084;-76
2024/02/27 02:43:43;;;;;;;21.40;14.07;;;1.90;99.90;;;;;;5027689;28;20060;-76
2024/02/27 02:46:09;;;;;;;15.38;12.48;;;1.90;99.90;;;;;;5045923;28;20489;-75
2024/02/27 02:48:36;;;;;;;17.83;12.18;;;1.90;99.90;;;;;;5037543;28;20037;-77
2024/02/27 02:51:05;;;;;;;17.10;13.25;;;1.90;99.90;;;;;;5028332;28;20109;-76
2024/02/27 02:53:34;;;;;;;18.88;12.85;;;1.90;99.90;;;;;;5043029;28;20068;-75
2024/02/27 02:56:03;;;;;;;18.00;12.05;;;1.90;99.90;;;;;;5052808;28;20496;-75
2024/02/27 02:58:29;;;;;;;21.63;13.82;;;1.90;99.90;;;;;;5045798;28;20409;-76
2024/02/27 03:00:54;;;;;;;16.33;11.80;;;1.90;99.90;;;;;;5029719;28;20049;-76
2024/02/27 03:03:20;;;;;;;17.13;13.00;;;1.80;99.90;;;;;;5028937;28;20194;-75
2024/02/27 03:05:47;;;;;;;19.83;13.75;;;1.80;99.90;;;;;;5029868;28;20037;-75
2024/02/27 03:08:13;;;;;;;21.02;14.20;;;1.80;99.90;;;;;;5018635;28;20124;-75
2024/02/27 03:10:41;;;;;;;20.42;14.25;;;1.80;99.90;;;;;;5035783;28;20056;-75
2024/02/27 03:13:08;;;;;;;20.48;14.35;;;1.80;99.90;;;;;;5026161;28;20052;-75
2024/02/27 03:15:36;;;;;;;23.25;14.57;;;1.80;99.90;;;;;;5030973;28;20392;-76
2024/02/27 03:18:02;;;;;;;23.25;15.55;;;1.80;99.90;;;;;;5014916;28;20501;-76
2024/02/27 03:20:28;;;;;;;23.05;14.63;;;1.80;99.90;;;;;;5024391;28;20064;-76
2024/02/27 03:22:54;;;;;;;21.23;14.25;;;1.70;99.90;;;;;;5024248;28;20047;-75
2024/02/27 03:25:19;;;;;;;20.20;14.18;;;1.80;99.90;;;;;;5014058;28;20064;-76
2024/02/27 03:27:45;;;;;;;20.25;15.57;;;1.70;99.90;;;;;;5041615;28;20412;-76
2024/02/27 03:30:13;;;;;;;23.30;15.85;;;1.70;99.90;;;;;;5012677;28;20378;-76
2024/02/27 03:32:39;;;;;;;24.13;16.00;;;1.70;99.90;;;;;;5017185;28;20512;-76
2024/02/27 03:35:07;;;;;;;20.40;14.98;;;1.70;99.90;;;;;;5011892;28;20037;-76
2024/02/27 03:37:33;;;;;;;27.60;18.20;;;1.70;99.90;;;;;;5029555;28;20450;-77
2024/02/27 03:39:59;;;;;;;27.92;17.52;;;1.60;99.90;;;;;;5037533;28;20045;-75
2024/02/27 03:42:24;;;;;;;31.48;19.95;;;1.60;99.90;;;;;;5035699;28;20045;-76
2024/02/27 03:44:50;;;;;;;23.60;16.58;;;1.70;99.90;;;;;;5033262;28;20156;-77
2024/02/27 03:47:21;;;;;;;27.77;18.13;;;1.70;99.90;;;;;;5032062;28;20452;-75
2024/02/27 03:49:47;;;;;;;22.60;16.63;;;1.70;99.90;;;;;;5014802;28;20053;-76
2024/02/27 03:52:13;;;;;;;28.05;18.52;;;1.70;99.90;;;;;;5016160;28;20097;-76
2024/02/27 03:54:38;;;;;;;33.78;20.10;;;1.70;99.90;;;;;;5053438;28;20048;-76
2024/02/27 03:57:05;;;;;;;25.25;17.65;;;1.70;99.90;;;;;;5026294;28;20135;-76
2024/02/27 03:59:30;;;;;;;29.33;18.67;;;1.70;99.90;;;;;;5042602;28;20067;-76
2024/02/27 04:01:56;;;;;;;25.00;17.52;;;1.70;99.90;;;;;;5041781;28;20792;-76
2024/02/27 04:04:22;;;;;;;27.92;18.45;;;1.70;99.90;;;;;;5041001;28;20037;-77
2024/02/27 04:06:48;;;;;;;24.70;17.20;;;1.70;99.90;;;;;;5047181;28;20047;-76
2024/02/27 04:09:14;;;;;;;33.30;19.63;;;1.70;99.90;;;;;;5053027;28;20050;-77
2024/02/27 04:11:39;;;;;;;32.30;19.70;;;1.70;99.90;;;;;;5038614;28;20056;-76
2024/02/27 04:14:05;;;;;;;30.67;18.35;;;1.60;99.90;;;;;;5049755;28;20476;-77
2024/02/27 04:16:31;;;;;;;32.83;19.77;;;1.60;99.90;;;;;;5032786;28;21212;-76
2024/02/27 04:18:57;;;;;;;26.33;19.08;;;1.60;99.90;;;;;;5047427;28;20063;-76
2024/02/27 04:21:23;;;;;;;29.75;19.17;;;1.60;99.90;;;;;;5049541;28;20500;-76
2024/02/27 04:23:49;;;;;;;26.30;18.42;;;1.60;99.90;;;;;;5028825;28;20079;-76
2024/02/27 04:26:15;;;;;;;30.65;19.98;;;1.60;99.90;;;;;;5048270;28;20416;-77
2024/02/27 04:28:40;;;;;;;29.25;20.15;;;1.60;99.90;;;;;;5044441;28;20044;-76
2024/02/27 04:31:09;;;;;;;30.67;19.05;;;1.70;99.90;;;;;;5045818;28;20044;-75
2024/02/27 04:33:35;;;;;;;30.70;19.90;;;1.70;99.90;;;;;;5043814;28;20185;-76
2024/02/27 04:36:01;;;;;;;30.05;19.85;;;1.70;99.90;;;;;;5049086;28;20128;-76
2024/02/27 04:38:26;;;;;;;32.30;20.45;;;1.70;99.90;;;;;;5051335;28;20040;-76
2024/02/27 04:40:52;;;;;;;33.05;20.80;;;1.70;99.90;;;;;;5051356;28;20469;-76
2024/02/27 04:43:18;;;;;;;40.90;22.52;;;1.60;99.90;;;;;;5031172;28;20115;-76
2024/02/27 04:45:44;;;;;;;37.08;21.95;;;1.60;99.90;;;;;;5031718;28;20056;-77
2024/02/27 04:48:10;;;;;;;33.55;20.40;;;1.60;99.90;;;;;;5035933;28;20380;-76
2024/02/27 04:50:36;;;;;;;30.83;19.30;;;1.60;99.90;;;;;;5029966;28;20091;-76
2024/02/27 04:53:02;;;;;;;31.92;20.60;;;1.60;99.90;;;;;;5028288;28;20372;-76
2024/02/27 04:55:29;;;;;;;39.45;22.33;;;1.60;99.90;;;;;;5028719;28;20037;-77
2024/02/27 04:57:55;;;;;;;41.15;21.98;;;1.70;99.90;;;;;;5029432;28;20119;-76
2024/02/27 05:00:21;;;;;;;36.17;20.85;;;1.70;99.90;;;;;;5048275;28;20098;-76
2024/02/27 05:02:47;;;;;;;37.92;22.13;;;1.80;99.90;;;;;;5049380;28;20044;-77
2024/02/27 05:05:13;;;;;;;34.92;20.42;;;1.80;99.90;;;;;;5049047;28;20059;-76
2024/02/27 05:07:38;;;;;;;34.92;20.55;;;1.90;99.90;;;;;;5032481;28;20369;-76
2024/02/27 05:10:04;;;;;;;37.08;21.20;;;2.00;99.90;;;;;;5055488;28;20044;-76
2024/02/27 05:12:30;;;;;;;34.33;19.48;;;2.10;99.90;;;;;;5038174;28;20036;-76
2024/02/27 05:14:56;;;;;;;36.83;20.85;;;2.10;99.90;;;;;;5042571;28;20040;-76
2024/02/27 05:17:22;;;;;;;33.38;20.60;;;2.20;99.90;;;;;;5047249;28;20547;-76
2024/02/27 05:19:47;;;;;;;35.38;21.52;;;2.20;99.90;;;;;;5046194;28;20415;-76
2024/02/27 05:22:13;;;;;;;37.58;21.35;;;2.30;99.90;;;;;;5048199;28;20627;-76
2024/02/27 05:24:39;;;;;;;37.60;21.33;;;2.30;99.90;;;;;;5034632;28;20041;-77
2024/02/27 05:27:05;;;;;;;39.30;22.10;;;2.30;99.90;;;;;;5046492;28;20028;-76
2024/02/27 05:29:32;;;;;;;32.78;20.75;;;2.40;99.90;;;;;;5048291;28;20089;-76
2024/02/27 05:31:59;;;;;;;30.65;21.25;;;2.40;99.90;;;;;;5048995;28;20041;-76
2024/02/27 05:34:25;;;;;;;29.48;19.83;;;2.50;99.90;;;;;;5045543;28;20040;-77
2024/02/27 05:36:51;;;;;;;38.40;22.55;;;2.70;99.90;;;;;;5029646;28;20056;-77
2024/02/27 05:39:16;;;;;;;36.47;22.33;;;2.60;99.90;;;;;;5043975;28;20146;-78
2024/02/27 05:41:44;;;;;;;34.88;20.83;;;2.60;99.90;;;;;;5049545;28;20040;-78
2024/02/27 05:44:09;;;;;;;33.72;20.73;;;2.60;99.90;;;;;;5032594;28;20315;-78
2024/02/27 05:46:35;;;;;;;30.83;20.77;;;2.70;99.90;;;;;;5028936;28;20067;-76
2024/02/27 05:49:04;;;;;;;32.00;21.05;;;2.70;99.90;;;;;;5037172;28;20480;-77
2024/02/27 05:51:29;;;;;;;37.78;22.23;;;2.70;99.90;;;;;;5047100;28;20041;-77
2024/02/27 05:53:56;;;;;;;34.40;21.02;;;2.70;99.90;;;;;;5056860;28;20044;-76
2024/02/27 05:56:21;;;;;;;31.63;20.48;;;2.90;99.90;;;;;;5029828;28;20500;-76
2024/02/27 05:58:48;;;;;;;31.40;21.83;;;2.80;99.90;;;;;;5042480;28;20135;-75
2024/02/27 06:01:15;;;;;;;31.90;21.50;;;2.80;99.90;;;;;;5045266;28;20051;-76
2024/02/27 06:03:41;;;;;;;30.58;21.20;;;2.80;99.90;;;;;;5046329;28;20044;-75
2024/02/27 06:06:13;;;;;;;28.08;18.92;;;2.90;99.90;;;;;;5029476;28;20048;-75
2024/02/27 06:08:39;;;;;;;28.48;19.58;;;3.00;99.90;;;;;;5046585;28;20072;-74
2024/02/27 06:11:05;;;;;;;30.83;19.85;;;2.90;99.90;;;;;;5028228;28;20040;-76
2024/02/27 06:13:31;;;;;;;30.27;19.55;;;2.80;99.90;;;;;;5041293;28;20032;-76
2024/02/27 06:15:59;;;;;;;31.20;20.25;;;2.90;99.90;;;;;;5053190;28;20035;-75
2024/02/27 06:18:25;;;;;;;28.15;20.10;;;2.90;99.90;;;;;;5024945;28;20043;-77
2024/02/27 06:23:35;;;;;;;25.27;18.63;;;3.10;99.90;;;;;;5046297;28;20157;-76
2024/02/27 06:26:07;;;;;;;25.63;19.67;;;3.00;99.90;;;;;;5036826;28;20157;-76
2024/02/27 06:28:33;;;;;;;25.88;19.02;;;2.90;99.90;;;;;;5027961;28;20048;-76
2024/02/27 06:30:59;;;;;;;27.85;19.88;;;3.00;99.90;;;;;;5032983;28;20492;-76
2024/02/27 06:33:25;;;;;;;28.35;18.90;;;3.00;99.90;;;;;;5032058;28;20039;-76
2024/02/27 06:35:50;;;;;;;25.27;18.33;;;2.90;99.90;;;;;;5045611;28;20051;-76
2024/02/27 06:38:16;;;;;;;25.58;19.70;;;3.00;99.90;;;;;;5033430;28;20388;-76
2024/02/27 06:40:44;;;;;;;25.30;19.52;;;3.00;99.90;;;;;;5046366;28;20121;-76
2024/02/27 06:43:13;;;;;;;27.20;19.55;;;3.00;99.90;;;;;;5028137;28;20083;-76
2024/02/27 06:45:40;;;;;;;29.10;21.30;;;3.10;99.90;;;;;;5031852;28;20439;-76
2024/02/27 06:48:09;;;;;;;28.35;21.33;;;3.00;99.90;;;;;;5045920;28;20519;-76
2024/02/27 06:50:39;;;;;;;24.30;20.10;;;3.00;99.90;;;;;;5030825;28;20035;-75
2024/02/27 06:53:05;;;;;;;24.83;19.63;;;3.10;99.90;;;;;;5025497;28;20053;-76
2024/02/27 06:55:31;;;;;;;20.73;18.15;;;3.10;99.90;;;;;;5048146;28;20028;-76
2024/02/27 06:57:57;;;;;;;23.85;17.17;;;3.20;99.90;;;;;;5023920;28;20063;-76
2024/02/27 07:00:23;;;;;;;21.80;18.08;;;3.20;99.90;;;;;;5034983;28;20165;-76
2024/02/27 07:02:49;;;;;;;20.35;17.95;;;3.30;99.90;;;;;;5044687;28;20051;-76
2024/02/27 07:05:15;;;;;;;21.98;18.05;;;3.40;99.90;;;;;;5030271;28;20051;-75
2024/02/27 07:07:40;;;;;;;19.80;17.70;;;3.30;99.90;;;;;;5046601;28;20041;-76
2024/02/27 07:10:06;;;;;;;20.55;17.27;;;3.40;99.90;;;;;;5025674;28;20040;-75
2024/02/27 07:12:33;;;;;;;19.42;17.33;;;3.40;99.90;;;;;;5036600;28;20045;-75
2024/02/27 07:14:59;;;;;;;21.88;16.92;;;3.40;99.90;;;;;;5042795;28;20045;-75
2024/02/27 07:17:25;;;;;;;19.20;16.38;;;3.40;99.90;;;;;;5046187;28;20044;-75
2024/02/27 07:19:51;;;;;;;20.77;16.60;;;3.40;99.90;;;;;;5041332;28;20507;-75
2024/02/27 07:22:17;;;;;;;20.13;16.70;;;3.40;99.90;;;;;;5032185;28;20040;-75
2024/02/27 07:24:42;;;;;;;18.90;16.90;;;3.50;99.90;;;;;;5055172;28;20128;-76
2024/02/27 07:27:08;;;;;;;18.67;16.77;;;3.50;99.90;;;;;;5028432;28;20493;-76
2024/02/27 07:29:37;;;;;;;18.83;16.83;;;3.50;99.90;;;;;;5041184;28;20032;-77
2024/02/27 07:32:03;;;;;;;17.88;15.98;;;3.50;99.90;;;;;;5027733;28;20521;-76
2024/02/27 07:34:29;;;;;;;18.48;16.50;;;3.60;99.90;;;;;;5043581;28;20162;-75
2024/02/27 07:36:55;;;;;;;19.17;17.10;;;3.60;99.90;;;;;;5028436;28;20138;-75
2024/02/27 07:39:21;;;;;;;19.52;17.33;;;3.60;99.90;;;;;;5042131;28;20040;-76
2024/02/27 07:41:47;;;;;;;19.75;16.83;;;3.70;99.90;;;;;;5027427;28;20072;-76
2024/02/27 07:44:13;;;;;;;20.23;17.73;;;3.70;99.90;;;;;;5047375;28;20521;-76
2024/02/27 07:46:39;;;;;;;18.80;16.70;;;3.70;99.90;;;;;;5047372;28;20040;-77
2024/02/27 07:49:04;;;;;;;17.23;15.48;;;3.70;99.90;;;;;;5037868;28;20044;-77
2024/02/27 07:51:34;;;;;;;17.67;15.60;;;3.80;99.90;;;;;;5031941;28;20040;-76
2024/02/27 07:54:01;;;;;;;17.88;16.08;;;3.80;99.90;;;;;;5031013;28;20059;-76
2024/02/27 07:56:30;;;;;;;18.67;15.38;;;3.90;99.90;;;;;;5045956;28;20037;-76
2024/02/27 07:58:57;;;;;;;17.88;15.98;;;3.90;99.90;;;;;;5032996;28;20052;-77
2024/02/27 08:01:24;;;;;;;19.63;15.60;;;3.90;99.90;;;;;;5053966;28;20127;-76
2024/02/27 08:03:51;;;;;;;19.30;15.05;;;3.90;99.90;;;;;;5028442;28;20052;-76
2024/02/27 08:06:18;;;;;;;17.77;15.90;;;3.90;99.90;;;;;;5033179;28;20049;-76
2024/02/27 08:08:44;;;;;;;17.88;15.68;;;4.00;99.90;;;;;;5050592;28;20048;-75
2024/02/27 08:11:10;;;;;;;17.08;14.48;;;4.00;99.90;;;;;;5044232;28;20036;-76
2024/02/27 08:13:36;;;;;;;15.55;13.95;;;4.10;99.90;;;;;;5035670;28;20393;-76
2024/02/27 08:16:02;;;;;;;14.15;12.73;;;4.10;99.90;;;;;;5049296;28;20044;-76
2024/02/27 08:18:28;;;;;;;16.63;14.07;;;4.20;99.90;;;;;;5051538;28;20044;-77
2024/02/27 08:20:54;;;;;;;14.98;13.40;;;4.20;99.90;;;;;;5027705;28;20090;-76
2024/02/27 08:23:20;;;;;;;15.73;14.13;;;4.20;99.90;;;;;;5038561;28;20036;-76
2024/02/27 08:25:46;;;;;;;16.10;14.57;;;4.20;99.90;;;;;;5032016;28;20063;-76
2024/02/27 08:28:12;;;;;;;15.00;12.52;;;4.30;99.90;;;;;;5037861;28;20484;-76
2024/02/27 08:30:38;;;;;;;15.48;14.07;;;4.30;99.90;;;;;;5045824;28;20161;-76
2024/02/27 08:33:04;;;;;;;15.73;14.23;;;4.30;99.90;;;;;;5043061;28;20357;-76
2024/02/27 08:35:30;;;;;;;16.35;13.23;;;4.30;99.90;;;;;;5055958;28;20068;-75
2024/02/27 08:37:57;;;;;;;17.55;14.13;;;4.30;99.90;;;;;;5027680;28;20084;-76
2024/02/27 08:40:23;;;;;;;13.57;12.18;;;4.30;99.90;;;;;;5029679;28;20098;-76
2024/02/27 08:42:50;;;;;;;15.02;13.43;;;4.30;99.90;;;;;;5041157;28;20534;-76
2024/02/27 08:45:16;;;;;;;15.65;13.50;;;4.40;99.90;;;;;;5047382;28;20056;-76
2024/02/27 08:47:41;;;;;;;15.43;13.82;;;4.40;99.90;;;;;;5046749;28;20374;-76
2024/02/27 08:50:08;;;;;;;14.88;13.30;;;4.40;99.90;;;;;;5049664;28;20040;-76
2024/02/27 08:52:37;;;;;;;14.13;12.73;;;4.40;99.90;;;;;;5049691;28;20048;-76
2024/02/27 08:55:02;;;;;;;14.80;13.15;;;4.50;99.90;;;;;;5043558;28;20552;-76
2024/02/27 08:57:28;;;;;;;15.30;13.80;;;4.50;99.90;;;;;;5041656;28;20063;-76
2024/02/27 08:59:54;;;;;;;15.63;14.02;;;4.50;99.90;;;;;;5032382;28;20263;-76
2024/02/27 09:02:24;;;;;;;15.85;14.25;;;4.50;99.90;;;;;;5056305;28;20510;-76
2024/02/27 09:04:50;;;;;;;16.17;14.48;;;4.50;99.90;;;;;;5025300;28;20540;-76
2024/02/27 09:07:16;;;;;;;15.85;14.35;;;4.50;99.90;;;;;;5037787;28;20036;-76
2024/02/27 09:09:45;;;;;;;15.55;14.05;;;4.70;99.90;;;;;;5025579;28;20113;-75
2024/02/27 09:12:12;;;;;;;15.23;13.73;;;4.60;99.90;;;;;;5025956;28;20044;-76
2024/02/27 09:14:38;;;;;;;15.40;13.90;;;4.60;99.90;;;;;;5030509;28;20086;-76
2024/02/27 09:17:04;;;;;;;15.02;13.60;;;4.60;99.90;;;;;;5028937;28;20568;-76
2024/02/27 09:19:36;;;;;;;13.95;12.57;;;4.60;99.90;;;;;;5038230;28;20131;-76
2024/02/27 09:22:02;;;;;;;14.07;12.60;;;4.70;99.90;;;;;;5041402;28;20080;-75
2024/02/27 09:24:37;;;;;;;14.23;12.82;;;4.70;99.90;;;;;;5031839;28;20276;-76
2024/02/27 09:27:03;;;;;;;13.88;12.48;;;4.70;99.90;;;;;;5020636;28;20060;-75
2024/02/27 09:29:29;;;;;;;13.90;12.30;;;4.80;99.90;;;;;;5032762;28;20048;-76
2024/02/27 09:32:11;;;;;;;14.40;13.02;;;4.70;99.90;;;;;;5046511;28;20552;-76
2024/02/27 09:34:41;;;;;;;14.27;12.77;;;4.80;99.90;;;;;;5028421;28;20047;-76
2024/02/27 09:37:07;;;;;;;15.15;13.57;;;4.80;99.90;;;;;;5044572;28;20040;-76
2024/02/27 09:39:33;;;;;;;15.10;13.50;;;4.90;99.90;;;;;;5026825;28;20033;-75
2024/02/27 09:42:10;;;;;;;15.75;14.15;;;4.80;99.90;;;;;;5029817;28;20338;-75
2024/02/27 09:44:43;;;;;;;16.00;13.63;;;4.80;99.90;;;;;;5029446;28;20064;-75
2024/02/27 09:47:14;;;;;;;15.13;13.63;;;4.80;99.90;;;;;;5028940;28;20072;-75
2024/02/27 09:49:42;;;;;;;14.25;12.75;;;4.80;99.90;;;;;;5038781;28;20040;-75
2024/02/27 09:52:22;;;;;;;14.90;13.40;;;4.80;99.90;;;;;;5029175;28;20064;-76
2024/02/27 09:54:49;;;;;;;15.65;14.00;;;4.80;99.90;;;;;;5029545;28;20049;-75
2024/02/27 09:57:17;;;;;;;16.00;14.43;;;4.80;99.90;;;;;;5040450;28;20029;-76
2024/02/27 09:59:47;;;;;;;15.65;13.98;;;4.80;99.90;;;;;;5039166;28;20121;-74
2024/02/27 10:02:15;;;;;;;17.15;15.38;;;4.90;99.90;;;;;;5025926;28;20037;-74
2024/02/27 10:04:42;;;;;;;16.45;14.77;;;4.80;99.90;;;;;;5023201;28;20908;-75
2024/02/27 10:07:18;;;;;;;17.17;15.38;;;4.80;99.90;;;;;;5005012;28;20568;-76
2024/02/27 10:09:45;;;;;;;16.60;15.00;;;4.80;99.90;;;;;;5027565;28;20094;-75
2024/02/27 10:12:12;;;;;;;16.20;14.60;;;4.80;99.90;;;;;;5032216;28;20052;-75
2024/02/27 10:14:38;;;;;;;17.15;15.45;;;4.80;99.90;;;;;;5029227;28;20337;-75
2024/02/27 10:17:05;;;;;;;18.50;16.13;;;4.80;99.90;;;;;;5032458;28;20467;-75
2024/02/27 10:19:32;;;;;;;17.95;16.23;;;4.70;99.90;;;;;;5041071;28;20040;-74
2024/02/27 10:22:02;;;;;;;18.63;16.80;;;4.70;99.90;;;;;;5030416;28;20094;-75
2024/02/27 10:24:28;;;;;;;19.20;17.27;;;4.70;99.90;;;;;;5044999;28;20068;-75
2024/02/27 10:26:55;;;;;;;18.38;16.42;;;4.70;99.90;;;;;;5040094;28;20475;-75
2024/02/27 10:29:23;;;;;;;19.10;17.20;;;4.70;99.90;;;;;;5021750;28;20056;-76
2024/02/27 10:31:50;;;;;;;19.75;17.85;;;4.70;99.90;;;;;;5041539;28;20045;-75
2024/02/27 10:34:16;;;;;;;18.50;16.55;;;4.70;99.90;;;;;;5023658;28;20071;-75
2024/02/27 10:36:42;;;;;;;19.70;17.70;;;4.70;99.90;;;;;;5044962;28;20040;-75
2024/02/27 10:39:09;;;;;;;22.05;17.92;;;4.70;99.90;;;;;;5038731;28;20549;-75
2024/02/27 10:41:38;;;;;;;19.85;17.85;;;4.70;99.90;;;;;;5048054;28;20439;-75
2024/02/27 10:44:07;;;;;;;19.92;17.85;;;4.70;99.90;;;;;;5035172;28;20045;-75
2024/02/27 10:46:35;;;;;;;22.13;18.20;;;4.70;99.90;;;;;;5018541;28;20029;-75
2024/02/27 10:49:01;;;;;;;19.85;17.88;;;4.70;99.90;;;;;;5020450;28;20456;-74
2024/02/27 10:51:28;;;;;;;20.40;18.30;;;4.80;99.90;;;;;;5023545;28;20425;-74
2024/02/27 10:53:56;;;;;;;19.98;17.92;;;4.80;99.90;;;;;;5024509;28;20088;-75
2024/02/27 10:56:23;;;;;;;20.20;18.27;;;4.90;99.90;;;;;;5020048;28;20113;-74
2024/02/27 10:58:53;;;;;;;19.38;17.50;;;4.90;99.90;;;;;;5025752;28;20048;-75
2024/02/27 11:01:19;;;;;;;18.95;17.10;;;5.00;99.90;;;;;;5027427;28;20029;-75
2024/02/27 11:03:51;;;;;;;19.08;17.08;;;5.00;99.90;;;;;;5041226;28;20044;-75
2024/02/27 11:06:22;;;;;;;19.63;17.63;;;5.00;99.90;;;;;;5026251;28;20037;-75
2024/02/27 11:08:55;;;;;;;17.00;15.20;;;5.00;99.90;;;;;;5027554;28;20063;-74
2024/02/27 11:11:22;;;;;;;17.55;15.82;;;5.00;99.90;;;;;;5032432;28;20301;-75
2024/02/27 11:13:50;;;;;;;16.85;15.15;;;5.00;99.90;;;;;;5031285;28;20124;-75
2024/02/27 11:16:18;;;;;;;17.00;15.30;;;5.10;99.90;;;;;;5024506;28;20106;-74
2024/02/27 11:18:53;;;;;;;16.77;15.07;;;5.20;99.90;;;;;;5032732;28;20059;-75
2024/02/27 11:21:21;;;;;;;17.83;16.00;;;5.30;99.90;;;;;;5028984;28;20045;-75
2024/02/27 11:23:47;;;;;;;18.30;16.50;;;5.40;99.90;;;;;;5048881;28;20049;-75
2024/02/27 11:26:14;;;;;;;18.45;16.33;;;5.60;99.90;;;;;;5033802;28;20041;-75
2024/02/27 11:28:40;;;;;;;18.25;16.45;;;5.60;99.90;;;;;;5043965;28;20132;-75
2024/02/27 11:31:07;;;;;;;18.45;16.65;;;5.70;99.90;;;;;;5025577;28;20041;-75
2024/02/27 11:33:50;;;;;;;18.35;16.48;;;5.70;99.90;;;;;;5037972;28;20408;-75
2024/02/27 11:36:16;;;;;;;16.88;15.13;;;5.80;99.90;;;;;;5035937;28;20044;-75
2024/02/27 11:38:43;;;;;;;16.05;14.55;;;5.90;99.90;;;;;;5045842;28;20049;-75
2024/02/27 11:41:17;;;;;;;17.60;15.88;;;5.90;99.90;;;;;;5029215;28;20040;-75
2024/02/27 11:43:47;;;;;;;17.52;15.73;;;6.00;99.90;;;;;;5045342;28;20449;-75
2024/02/27 11:46:31;;;;;;;;;;;6.00;99.90;;;;;;5045170;28;20458;-75
2024/02/27 11:49:09;;;;;;;16.08;14.48;;;5.90;99.90;;;;;;5054937;28;19973;-75
2024/02/27 11:51:36;;;;;;;17.58;15.88;;;6.00;99.90;;;;;;5037690;28;20143;-75
2024/02/27 11:54:07;;;;;;;16.20;14.57;;;5.90;99.90;;;;;;5025519;28;20056;-75
2024/02/27 11:56:38;;;;;;;17.48;15.65;;;6.00;99.90;;;;;;5019381;28;20482;-75
2024/02/27 11:59:04;;;;;;;15.32;13.77;;;6.00;99.90;;;;;;5027414;28;20056;-75
2024/02/27 12:01:31;;;;;;;17.92;16.23;;;6.00;99.90;;;;;;5034122;28;20049;-75
2024/02/27 12:03:57;;;;;;;16.60;14.55;;;6.00;99.90;;;;;;5030162;28;20187;-75
2024/02/27 12:06:23;;;;;;;16.08;14.57;;;6.00;99.90;;;;;;5022911;28;20045;-74
2024/02/27 12:08:50;;;;;;;16.48;14.77;;;6.10;99.90;;;;;;5022149;28;20061;-75
2024/02/27 12:11:17;;;;;;;16.50;14.88;;;6.20;99.90;;;;;;5034050;28;20047;-75
2024/02/27 12:13:49;;;;;;;16.17;14.55;;;6.30;99.90;;;;;;5042237;28;20037;-75
2024/02/27 12:16:26;;;;;;;16.92;15.23;;;6.30;99.90;;;;;;5025657;28;20390;-74
2024/02/27 12:18:59;;;;;;;16.98;15.38;;;6.30;99.90;;;;;;5033155;28;20091;-74
2024/02/27 12:21:34;;;;;;;21.25;19.05;;;6.30;99.90;;;;;;5026272;28;20240;-75
2024/02/27 12:24:16;;;;;;;16.83;14.98;;;6.30;99.90;;;;;;5024627;28;20045;-75
2024/02/27 12:26:43;;;;;;;17.17;15.27;;;6.40;99.90;;;;;;5021135;28;20059;-75
2024/02/27 12:29:09;;;;;;;15.95;14.35;;;6.40;99.90;;;;;;5028408;28;20083;-75
2024/02/27 12:31:36;;;;;;;17.30;15.35;;;6.50;99.90;;;;;;5047879;28;20040;-75
2024/02/27 12:34:05;;;;;;;16.23;14.55;;;6.50;99.90;;;;;;5039938;28;20045;-75
2024/02/27 12:36:32;;;;;;;16.90;15.10;;;6.60;99.90;;;;;;5035225;28;20064;-73
2024/02/27 12:38:58;;;;;;;15.95;14.35;;;6.60;99.90;;;;;;5050579;28;20079;-75